Time;durP1;ratioP1;P1;durP2;ratioP2;P2;SDS_P1;SDS_P2;PMS_P1;PMS_P2;Temp;Humidity;BMP_temperature;BMP_pressure;BME280_temperature;BME280_humidity;BME280_pressure;Samples;Min_cycle;Max_cycle;Signal;HPM_P1;HPM_P2
2022/03/17 00:01:46;;;;;;;100.05;37.25;;;;;;;2.60;83.92;102780.13;4954021;28;20059;-46
2022/03/17 00:04:12;;;;;;;106.85;37.67;;;;;;;2.61;83.93;102782.81;4959684;28;20055;-49
2022/03/17 00:06:41;;;;;;;99.28;33.85;;;;;;;2.61;83.83;102777.69;4955319;28;20775;-46
2022/03/17 00:09:07;;;;;;;108.72;36.28;;;;;;;2.59;83.94;102776.69;4957516;28;20054;-46
2022/03/17 00:11:34;;;;;;;107.47;34.38;;;;;;;2.54;84.12;102779.00;4952580;28;20055;-46
2022/03/17 00:14:01;;;;;;;110.38;38.88;;;;;;;2.52;84.25;102782.25;4959510;28;20058;-46
2022/03/17 00:16:28;;;;;;;92.05;33.72;;;;;;;2.53;84.41;102779.78;4954232;28;20047;-45
2022/03/17 00:18:55;;;;;;;92.43;33.47;;;;;;;2.55;84.93;102777.31;4954981;28;20059;-49
2022/03/17 00:21:22;;;;;;;93.88;35.30;;;;;;;2.56;84.88;102778.19;4953845;28;20525;-46
2022/03/17 00:23:50;;;;;;;114.65;39.20;;;;;;;2.56;84.71;102773.97;4956342;28;20051;-46
2022/03/17 00:26:17;;;;;;;87.38;33.13;;;;;;;2.58;84.63;102774.91;4956991;28;20554;-47
2022/03/17 00:28:43;;;;;;;101.80;35.90;;;;;;;2.60;84.40;102775.00;4960106;28;20459;-48
2022/03/17 00:31:10;;;;;;;123.63;38.33;;;;;;;2.58;84.30;102776.59;4959034;28;20054;-47
2022/03/17 00:33:36;;;;;;;98.20;34.13;;;;;;;2.53;84.96;102778.91;4958963;28;20640;-47
2022/03/17 00:36:03;;;;;;;106.20;38.22;;;;;;;2.51;84.76;102775.38;4964495;28;20062;-49
2022/03/17 00:38:29;;;;;;;91.90;32.58;;;;;;;2.51;84.83;102778.81;4952142;28;20055;-48
2022/03/17 00:40:57;;;;;;;106.68;36.25;;;;;;;2.52;84.60;102782.25;4965139;28;20545;-48
2022/03/17 00:43:24;;;;;;;100.22;34.63;;;;;;;2.51;84.75;102778.81;4967867;28;20062;-50
2022/03/17 00:45:51;;;;;;;98.03;34.30;;;;;;;2.51;84.83;102781.38;4967253;28;20499;-49
2022/03/17 00:48:17;;;;;;;108.05;35.00;;;;;;;2.52;85.19;102775.47;4967705;28;20431;-47
2022/03/17 00:50:44;;;;;;;115.63;39.00;;;;;;;2.51;84.71;102785.63;4967646;28;20688;-47
2022/03/17 00:53:10;;;;;;;108.68;36.08;;;;;;;2.48;85.17;102776.09;4968104;28;20054;-47
2022/03/17 00:55:37;;;;;;;112.25;34.30;;;;;;;2.48;85.16;102781.19;4967869;28;20443;-49
2022/03/17 00:58:05;;;;;;;110.55;37.78;;;;;;;2.48;85.55;102781.19;4967454;28;20078;-46
2022/03/17 01:00:31;;;;;;;102.63;34.67;;;;;;;2.48;85.26;102777.75;4968115;28;20055;-46
2022/03/17 01:02:58;;;;;;;99.75;34.67;;;;;;;2.47;84.98;102782.00;4966675;28;20055;-47
2022/03/17 01:05:25;;;;;;;113.95;36.25;;;;;;;2.47;85.24;102783.69;4967960;28;20178;-46
2022/03/17 01:07:54;;;;;;;118.60;32.83;;;;;;;2.46;85.36;102785.34;4967758;28;20070;-46
2022/03/17 01:10:22;;;;;;;155.90;39.58;;;;;;;2.47;85.09;102779.44;4967595;28;20476;-47
2022/03/17 01:12:50;;;;;;;102.38;30.88;;;;;;;2.46;85.60;102787.91;4967585;28;20206;-47
2022/03/17 01:15:20;;;;;;;117.45;36.10;;;;;;;2.46;84.95;102785.34;4967439;28;20046;-47
2022/03/17 01:17:47;;;;;;;101.45;33.72;;;;;;;2.45;85.04;102786.16;4967532;28;20047;-51
2022/03/17 01:20:14;;;;;;;81.10;29.58;;;;;;;2.45;84.65;102786.16;4967226;28;20066;-47
2022/03/17 01:22:40;;;;;;;100.88;31.50;;;;;;;2.42;85.31;102785.97;4967475;28;20050;-49
2022/03/17 01:25:08;;;;;;;111.40;30.65;;;;;;;2.39;85.12;102790.03;4967360;28;20058;-45
2022/03/17 01:27:35;;;;;;;88.50;29.23;;;;;;;2.34;85.21;102791.44;4967178;28;20054;-49
2022/03/17 01:30:03;;;;;;;106.25;32.67;;;;;;;2.31;85.19;102787.03;4968619;28;20179;-48
2022/03/17 01:32:32;;;;;;;121.68;36.50;;;;;;;2.28;85.46;102784.31;4966656;28;20054;-46
2022/03/17 01:34:58;;;;;;;82.13;29.83;;;;;;;2.29;85.09;102788.63;4967116;28;20050;-47
2022/03/17 01:37:25;;;;;;;106.75;34.05;;;;;;;2.29;85.62;102796.31;4966489;28;20546;-47
2022/03/17 01:39:53;;;;;;;106.38;34.15;;;;;;;2.27;85.43;102790.22;4966801;28;20062;-44
2022/03/17 01:42:20;;;;;;;135.48;37.15;;;;;;;2.29;85.52;102798.88;4966703;28;20101;-47
2022/03/17 01:44:46;;;;;;;75.82;28.00;;;;;;;2.27;85.30;102804.69;4967357;28;20589;-48
2022/03/17 01:47:28;;;;;;;101.25;32.80;;;;;;;2.24;84.97;102800.28;4964629;28;20051;-47
2022/03/17 01:49:56;;;;;;;99.18;31.20;;;;;;;2.19;85.22;102802.56;4967028;28;20053;-47
2022/03/17 01:52:23;;;;;;;97.82;34.22;;;;;;;2.20;85.35;102798.34;4966433;28;20047;-46
2022/03/17 01:54:50;;;;;;;118.07;33.15;;;;;;;2.21;85.46;102800.09;4966918;28;20057;-47
2022/03/17 01:57:17;;;;;;;92.78;33.13;;;;;;;2.19;85.63;102801.69;4966833;28;20073;-47
2022/03/17 01:59:44;;;;;;;128.57;32.58;;;;;;;2.19;85.19;102801.69;4966819;28;20058;-46
2022/03/17 02:02:13;;;;;;;92.40;31.50;;;;;;;2.17;85.59;102795.59;4966239;28;20072;-47
2022/03/17 02:04:41;;;;;;;91.85;31.17;;;;;;;2.16;85.20;102801.50;4967015;28;20167;-47
2022/03/17 02:07:11;;;;;;;93.10;33.90;;;;;;;2.16;85.72;102806.63;4966160;28;20491;-47
2022/03/17 02:09:38;;;;;;;109.57;34.47;;;;;;;2.14;85.76;102803.09;4965349;28;20050;-46
2022/03/17 02:14:51;;;;;;;106.95;33.85;;;;;;;2.18;85.88;102802.47;4966273;28;20915;-47
2022/03/17 02:17:17;;;;;;;90.65;31.25;;;;;;;2.19;86.14;102796.56;4966393;28;20054;-47
2022/03/17 02:19:44;;;;;;;106.63;32.65;;;;;;;2.20;85.76;102801.78;4964704;28;20054;-48
2022/03/17 02:22:14;;;;;;;147.15;39.22;;;;;;;2.18;86.05;102805.94;4965922;28;20054;-46
2022/03/17 02:27:25;;;;;;;104.53;32.03;;;;;;;2.20;86.13;102795.78;4927264;28;20133;-46
2022/03/17 02:29:52;;;;;;;119.53;33.70;;;;;;;2.21;86.21;102800.09;4966220;28;20055;-49
2022/03/17 02:32:20;;;;;;;94.65;29.45;;;;;;;2.20;86.29;102793.22;4966416;28;20054;-47
2022/03/17 02:34:46;;;;;;;141.18;35.22;;;;;;;2.20;86.38;102798.34;4965539;28;20053;-46
2022/03/17 02:37:15;;;;;;;136.25;37.08;;;;;;;2.19;86.71;102797.44;4966087;28;20050;-48
2022/03/17 02:39:43;;;;;;;114.20;33.85;;;;;;;2.16;86.23;102796.41;4965526;28;20051;-46
2022/03/17 02:42:10;;;;;;;124.65;34.00;;;;;;;2.16;86.45;102796.41;4965731;28;20137;-45
2022/03/17 02:44:36;;;;;;;136.88;33.03;;;;;;;2.14;86.35;102792.88;4966055;28;20138;-45
2022/03/17 02:47:04;;;;;;;93.72;29.83;;;;;;;2.13;86.10;102793.66;4965566;28;20055;-45
2022/03/17 02:49:30;;;;;;;128.88;33.55;;;;;;;2.14;86.35;102787.75;4965511;28;20051;-46
2022/03/17 02:51:57;;;;;;;117.70;32.13;;;;;;;2.12;86.39;102789.34;4965577;28;20046;-46
2022/03/17 02:54:24;;;;;;;90.82;31.40;;;;;;;2.10;86.08;102780.69;4965968;28;20058;-48
2022/03/17 02:56:52;;;;;;;93.07;29.40;;;;;;;2.09;86.46;102787.47;4964887;28;20053;-45
2022/03/17 02:59:18;;;;;;;106.85;29.83;;;;;;;2.09;86.12;102789.16;4964736;28;20077;-46
2022/03/17 03:01:44;;;;;;;126.50;34.35;;;;;;;2.04;86.10;102795.66;4964658;28;20051;-46
2022/03/17 03:04:13;;;;;;;110.68;30.20;;;;;;;1.98;86.08;102798.72;4964893;28;20101;-46
2022/03/17 03:06:39;;;;;;;133.27;32.70;;;;;;;1.97;86.11;102794.41;4965052;28;20070;-46
2022/03/17 03:09:06;;;;;;;97.00;31.52;;;;;;;1.97;86.19;102789.28;4964577;28;20058;-47
2022/03/17 03:11:32;;;;;;;75.70;27.20;;;;;;;1.97;86.09;102796.06;4964041;28;20047;-47
2022/03/17 03:14:01;;;;;;;100.05;29.80;;;;;;;1.96;86.16;102802.88;4964919;28;20043;-46
2022/03/17 03:16:28;;;;;;;80.63;28.05;;;;;;;1.92;85.67;102805.16;4963040;28;20137;-48
2022/03/17 03:18:55;;;;;;;71.85;27.13;;;;;;;1.90;85.84;102815.28;4965092;28;20057;-48
2022/03/17 03:21:21;;;;;;;76.28;24.42;;;;;;;1.89;85.46;102821.19;4965984;28;20051;-46
2022/03/17 03:23:47;;;;;;;70.25;25.05;;;;;;;1.84;85.78;102812.38;4965030;28;20054;-44
2022/03/17 03:26:14;;;;;;;61.53;25.08;;;;;;;1.81;85.26;102823.31;4965598;28;20217;-47
2022/03/17 03:28:40;;;;;;;111.55;28.80;;;;;;;1.79;85.17;102814.66;4965561;28;20503;-46
2022/03/17 03:31:08;;;;;;;101.43;26.52;;;;;;;1.72;85.41;102822.75;4965269;28;20047;-47
2022/03/17 03:33:35;;;;;;;93.43;26.58;;;;;;;1.67;85.29;102824.16;4965021;28;20479;-47
2022/03/17 03:38:46;;;;;;;97.13;28.20;;;;;;;1.53;85.50;102830.06;4965062;28;21484;-45
2022/03/17 03:41:12;;;;;;;80.05;25.75;;;;;;;1.49;85.64;102833.22;4964803;28;20059;-46
2022/03/17 03:43:38;;;;;;;90.65;26.50;;;;;;;1.46;86.03;102827.91;4965685;28;20660;-49
2022/03/17 03:46:07;;;;;;;100.60;24.95;;;;;;;1.43;86.05;102832.84;4963687;28;20067;-47
2022/03/17 03:48:34;;;;;;;89.85;26.33;;;;;;;1.41;85.82;102827.63;4965087;28;20062;-47
2022/03/17 03:51:01;;;;;;;119.43;24.95;;;;;;;1.40;85.99;102837.75;4963777;28;20074;-46
2022/03/17 03:54:12;;;;;;;128.55;25.15;;;;;;;1.38;86.43;102829.13;4964935;28;20054;-46
2022/03/17 03:56:13;;;;;;;;;;;;;;;1.34;86.98;102829.72;4964896;28;20066;-48
2022/03/17 03:58:40;;;;;;;141.25;28.70;;;;;;;1.32;86.49;102833.84;4964599;28;19925;-45
2022/03/17 04:01:07;;;;;;;190.65;30.95;;;;;;;1.30;86.56;102830.31;4962998;28;20058;-49
2022/03/17 04:03:34;;;;;;;141.80;28.13;;;;;;;1.26;87.00;102837.78;4964924;28;20066;-47
2022/03/17 04:06:00;;;;;;;125.72;23.85;;;;;;;1.24;86.80;102826.59;4964543;28;20190;-46
2022/03/17 04:08:27;;;;;;;90.78;26.77;;;;;;;1.21;86.18;102835.75;4964571;28;20058;-45
2022/03/17 04:10:53;;;;;;;143.00;28.20;;;;;;;1.14;86.38;102839.56;4964422;28;20432;-46
2022/03/17 04:13:20;;;;;;;109.28;25.60;;;;;;;1.09;86.56;102834.97;4964459;28;20047;-47
2022/03/17 04:15:46;;;;;;;146.85;29.15;;;;;;;1.05;86.71;102841.56;4964749;28;20495;-47
2022/03/17 04:18:14;;;;;;;151.90;29.05;;;;;;;1.01;86.74;102837.00;4964719;28;20480;-49
2022/03/17 04:20:40;;;;;;;94.75;26.77;;;;;;;0.96;87.39;102838.38;4964817;28;20637;-47
2022/03/17 04:23:07;;;;;;;203.52;34.33;;;;;;;0.92;87.88;102849.19;4964473;28;20796;-47
2022/03/17 04:25:33;;;;;;;84.35;25.60;;;;;;;0.91;88.16;102843.19;4964977;28;20284;-47
2022/03/17 04:28:00;;;;;;;99.53;29.40;;;;;;;0.94;88.31;102852.72;4962733;28;20047;-46
2022/03/17 04:30:26;;;;;;;156.13;32.13;;;;;;;0.98;88.57;102854.69;4964635;28;20051;-47
2022/03/17 04:32:53;;;;;;;129.18;28.25;;;;;;;0.97;88.27;102840.16;4964407;28;20584;-46
2022/03/17 04:35:21;;;;;;;108.25;31.15;;;;;;;0.99;88.71;102848.78;4964983;28;20054;-46
2022/03/17 04:37:48;;;;;;;125.03;29.80;;;;;;;1.02;88.83;102843.88;4963721;28;20051;-47
2022/03/17 04:40:14;;;;;;;90.43;26.00;;;;;;;1.06;88.58;102845.00;4964494;28;20451;-46
2022/03/17 04:42:41;;;;;;;139.23;29.08;;;;;;;1.07;88.44;102851.88;4964536;28;20506;-46
2022/03/17 04:45:08;;;;;;;158.57;32.70;;;;;;;1.08;88.48;102859.63;4963485;28;20407;-46
2022/03/17 04:47:35;;;;;;;187.95;34.58;;;;;;;1.06;88.45;102856.09;4964029;28;20173;-46
2022/03/17 04:50:01;;;;;;;159.00;31.52;;;;;;;1.07;89.08;102852.75;4963535;28;20055;-45
2022/03/17 04:55:09;;;;;;;155.18;34.58;;;;;;;1.06;88.70;102856.09;4931574;28;20055;-45
2022/03/17 04:57:36;;;;;;;198.15;35.63;;;;;;;1.06;89.07;102860.31;4963261;28;20057;-46
2022/03/17 05:00:03;;;;;;;142.13;28.80;;;;;;;1.06;89.19;102866.31;4963617;28;20057;-47
2022/03/17 05:02:30;;;;;;;124.38;29.38;;;;;;;1.03;88.92;102860.97;4961993;28;20050;-46
2022/03/17 05:04:56;;;;;;;125.50;28.45;;;;;;;1.02;88.92;102864.31;4963579;28;20047;-49
2022/03/17 05:07:23;;;;;;;188.30;32.35;;;;;;;1.03;88.98;102860.97;4965339;28;20427;-46
2022/03/17 05:09:51;;;;;;;92.88;23.50;;;;;;;1.04;88.83;102864.41;4967610;28;20059;-47
2022/03/17 05:12:17;;;;;;;181.07;31.90;;;;;;;1.02;88.79;102864.31;4967331;28;20051;-46
2022/03/17 05:14:43;;;;;;;108.63;27.67;;;;;;;1.02;88.46;102868.53;4966430;28;20059;-47
2022/03/17 05:17:10;;;;;;;73.75;22.75;;;;;;;0.99;88.28;102866.66;4967597;28;20047;-47
2022/03/17 05:19:37;;;;;;;69.80;24.48;;;;;;;0.96;87.83;102863.91;4968290;28;20056;-48
2022/03/17 05:22:03;;;;;;;95.95;25.38;;;;;;;0.95;87.77;102862.16;4967599;28;20053;-46
2022/03/17 05:24:30;;;;;;;95.57;27.55;;;;;;;0.93;88.14;102866.28;4967684;28;20047;-46
2022/03/17 05:26:58;;;;;;;108.97;25.80;;;;;;;0.92;88.37;102869.63;4966846;28;20078;-45
2022/03/17 05:29:25;;;;;;;129.20;28.70;;;;;;;0.92;88.40;102867.06;4966102;28;20063;-45
2022/03/17 05:31:51;;;;;;;114.90;25.00;;;;;;;0.93;88.71;102874.81;4967206;28;20051;-46
2022/03/17 05:34:18;;;;;;;159.55;30.25;;;;;;;0.91;88.22;102878.06;4966390;28;20059;-46
2022/03/17 05:36:45;;;;;;;90.95;24.00;;;;;;;0.88;88.13;102880.41;4966325;28;20069;-46
2022/03/17 05:39:11;;;;;;;146.55;28.98;;;;;;;0.90;88.40;102876.28;4966105;28;20057;-46
2022/03/17 05:41:38;;;;;;;87.40;25.73;;;;;;;0.90;88.64;102884.84;4966824;28;20054;-46
2022/03/17 05:44:07;;;;;;;122.72;28.65;;;;;;;0.94;88.95;102880.81;4967378;28;20054;-47
2022/03/17 05:46:33;;;;;;;100.38;26.52;;;;;;;0.98;88.93;102879.34;4967400;28;20094;-47
2022/03/17 05:49:01;;;;;;;144.65;29.60;;;;;;;1.01;89.42;102884.66;4966918;28;20053;-48
2022/03/17 05:51:27;;;;;;;88.80;26.40;;;;;;;1.01;89.29;102893.19;4966738;28;20143;-48
2022/03/17 05:53:53;;;;;;;114.45;29.52;;;;;;;1.06;89.50;102884.19;4967428;28;20050;-47
2022/03/17 05:56:20;;;;;;;150.40;30.02;;;;;;;1.10;89.22;102891.25;4966539;28;20058;-48
2022/03/17 05:58:46;;;;;;;113.80;29.60;;;;;;;1.13;89.31;102882.91;4965608;28;20063;-46
2022/03/17 06:01:14;;;;;;;73.40;27.00;;;;;;;1.17;89.39;102883.19;4965217;28;20089;-49
2022/03/17 06:03:40;;;;;;;88.28;25.67;;;;;;;1.17;88.92;102885.75;4964914;28;20065;-46
2022/03/17 06:06:07;;;;;;;129.90;26.83;;;;;;;1.21;88.64;102882.59;4966504;28;20058;-47
2022/03/17 06:08:33;;;;;;;79.65;26.88;;;;;;;1.24;88.88;102893.03;4966290;28;20539;-47
2022/03/17 06:11:00;;;;;;;86.50;28.23;;;;;;;1.31;88.67;102888.31;4966946;28;20047;-47
2022/03/17 06:13:26;;;;;;;72.22;25.23;;;;;;;1.37;88.44;102883.56;4966244;28;20058;-47
2022/03/17 06:15:53;;;;;;;68.47;27.10;;;;;;;1.40;88.00;102886.31;4965778;28;20061;-47
2022/03/17 06:18:20;;;;;;;61.50;24.73;;;;;;;1.45;87.83;102892.59;4964517;28;20063;-47
2022/03/17 06:20:47;;;;;;;72.50;27.58;;;;;;;1.51;87.47;102892.97;4966380;28;20061;-46
2022/03/17 06:23:13;;;;;;;63.25;26.02;;;;;;;1.55;86.97;102894.94;4966412;28;20043;-48
2022/03/17 06:25:40;;;;;;;67.95;27.10;;;;;;;1.62;87.01;102886.91;4964597;28;20055;-45
2022/03/17 06:28:07;;;;;;;74.65;27.48;;;;;;;1.70;86.88;102895.03;4966257;28;20065;-46
2022/03/17 06:30:35;;;;;;;60.03;26.40;;;;;;;1.78;86.56;102889.59;4965457;28;20444;-48
2022/03/17 06:33:04;;;;;;;55.22;26.50;;;;;;;1.88;86.74;102891.94;4966000;28;20047;-46
2022/03/17 06:35:32;;;;;;;61.47;28.73;;;;;;;2.01;85.78;102892.66;4964029;28;20514;-46
2022/03/17 06:38:00;;;;;;;68.43;28.17;;;;;;;2.17;85.65;102895.38;4965551;28;20058;-45
2022/03/17 06:40:30;;;;;;;62.13;29.45;;;;;;;2.30;85.11;102887.66;4964678;28;20069;-48
2022/03/17 06:42:57;;;;;;;67.43;29.83;;;;;;;2.48;84.84;102886.16;4965453;28;20147;-50
2022/03/17 06:45:24;;;;;;;66.85;28.48;;;;;;;2.68;84.97;102889.03;4964814;28;20180;-47
2022/03/17 06:47:51;;;;;;;60.88;27.80;;;;;;;2.84;83.63;102884.88;4965483;28;20480;-50
2022/03/17 06:50:20;;;;;;;55.20;25.42;;;;;;;3.05;83.55;102892.88;4964366;28;20070;-46
2022/03/17 06:52:48;;;;;;;53.70;26.20;;;;;;;3.25;83.08;102895.69;4966612;28;20141;-46
2022/03/17 06:55:15;;;;;;;59.70;29.13;;;;;;;3.47;82.14;102898.66;4966566;28;20061;-47
2022/03/17 06:57:43;;;;;;;68.07;28.98;;;;;;;3.66;81.07;102904.00;4966620;28;20055;-46
2022/03/17 07:00:12;;;;;;;50.90;26.88;;;;;;;3.87;80.91;102908.50;4965319;28;20551;-47
2022/03/17 07:02:38;;;;;;;56.15;27.13;;;;;;;4.14;80.38;102915.09;4966242;28;20060;-47
2022/03/17 07:05:06;;;;;;;55.03;28.08;;;;;;;4.37;79.23;102913.75;4966397;28;20055;-48
2022/03/17 07:07:33;;;;;;;49.80;25.08;;;;;;;4.59;77.97;102916.59;4966702;28;20065;-46
2022/03/17 07:10:01;;;;;;;50.03;26.15;;;;;;;4.79;76.40;102909.91;4966964;28;20423;-46
2022/03/17 07:12:28;;;;;;;44.38;24.50;;;;;;;4.97;75.93;102909.94;4966368;28;20050;-46
2022/03/17 07:14:54;;;;;;;40.95;22.25;;;;;;;5.21;74.37;102915.41;4964055;28;20043;-47
2022/03/17 07:17:22;;;;;;;42.65;22.45;;;;;;;5.44;73.29;102912.22;4965665;28;20145;-48
2022/03/17 07:19:59;;;;;;;39.50;22.05;;;;;;;5.65;72.87;102913.22;4968061;28;20496;-49
2022/03/17 07:22:26;;;;;;;38.83;21.55;;;;;;;5.81;71.18;102912.25;4965591;28;20092;-47
2022/03/17 07:24:53;;;;;;;35.75;21.23;;;;;;;5.96;70.54;102917.25;4963964;28;20477;-46
2022/03/17 07:27:21;;;;;;;40.05;21.90;;;;;;;6.14;69.66;102918.06;4949271;28;20174;-47
2022/03/17 07:29:48;;;;;;;43.50;23.45;;;;;;;6.35;69.52;102914.69;4962473;28;20078;-46
2022/03/17 07:32:15;;;;;;;41.65;24.65;;;;;;;6.48;68.24;102916.97;4963666;28;20038;-47
2022/03/17 07:34:42;;;;;;;43.72;22.45;;;;;;;6.68;68.42;102920.38;4964173;28;20050;-47
2022/03/17 07:37:09;;;;;;;38.58;23.35;;;;;;;6.85;67.51;102922.88;4963265;28;20058;-49
2022/03/17 07:39:35;;;;;;;43.95;23.90;;;;;;;7.00;66.72;102929.47;4966042;28;20090;-49
2022/03/17 07:42:04;;;;;;;52.95;30.40;;;;;;;7.23;66.26;102928.72;4965471;28;20047;-48
2022/03/17 07:44:32;;;;;;;47.58;29.60;;;;;;;7.43;65.67;102930.41;4965016;28;20373;-48
2022/03/17 07:46:58;;;;;;;45.08;22.67;;;;;;;7.65;64.69;102928.66;4962519;28;20054;-48
2022/03/17 07:49:25;;;;;;;37.58;20.70;;;;;;;7.88;63.56;102928.72;4963479;28;20050;-50
2022/03/17 07:51:51;;;;;;;35.97;21.83;;;;;;;8.12;62.75;102926.16;4962830;28;20055;-47
2022/03/17 07:54:17;;;;;;;30.65;18.30;;;;;;;8.38;62.96;102923.69;4964267;28;20051;-47
2022/03/17 07:56:44;;;;;;;37.42;21.45;;;;;;;8.53;60.67;102932.84;4962988;28;20164;-46
2022/03/17 07:59:11;;;;;;;33.17;20.90;;;;;;;8.58;58.75;102933.00;4962160;28;20497;-48
2022/03/17 08:01:38;;;;;;;36.97;22.02;;;;;;;8.75;59.29;102931.88;4963047;28;20046;-47
2022/03/17 08:04:05;;;;;;;34.72;20.70;;;;;;;9.02;58.61;102941.41;4963549;28;20051;-47
2022/03/17 08:06:33;;;;;;;33.20;21.30;;;;;;;9.26;58.14;102942.19;4962956;28;20054;-46
2022/03/17 08:08:59;;;;;;;34.47;21.42;;;;;;;9.54;58.32;102946.56;4962751;28;20145;-45
2022/03/17 08:11:26;;;;;;;39.90;23.05;;;;;;;9.80;57.29;102939.56;4962537;28;20117;-47
2022/03/17 08:13:52;;;;;;;35.72;22.02;;;;;;;10.01;55.16;102937.63;4962655;28;20516;-48
2022/03/17 08:16:19;;;;;;;33.78;21.02;;;;;;;10.25;54.62;102939.19;4963129;28;20523;-51
2022/03/17 08:18:48;;;;;;;28.95;20.02;;;;;;;10.53;53.84;102944.31;4962848;28;20433;-55
2022/03/17 08:21:14;;;;;;;29.23;19.75;;;;;;;10.85;53.37;102949.44;4962485;28;20051;-48
2022/03/17 08:23:41;;;;;;;33.83;22.77;;;;;;;10.97;51.86;102952.38;4962044;28;20062;-51
2022/03/17 08:26:08;;;;;;;35.67;22.52;;;;;;;11.12;50.81;102947.56;4962505;28;20153;-52
2022/03/17 08:28:34;;;;;;;32.83;21.33;;;;;;;11.22;50.62;102939.16;4963522;28;20467;-47
2022/03/17 08:31:01;;;;;;;36.63;23.52;;;;;;;11.51;49.79;102945.06;4963116;28;20051;-46
2022/03/17 08:33:27;;;;;;;35.25;22.33;;;;;;;11.61;49.57;102940.94;4962408;28;20046;-50
2022/03/17 08:35:55;;;;;;;34.55;21.67;;;;;;;11.90;48.80;102942.47;4962552;28;20043;-46
2022/03/17 08:38:21;;;;;;;39.30;24.90;;;;;;;12.07;47.65;102939.38;4962834;28;20059;-47
2022/03/17 08:40:48;;;;;;;35.83;23.60;;;;;;;11.89;46.64;102943.31;4961801;28;20125;-50
2022/03/17 08:43:14;;;;;;;40.20;23.33;;;;;;;12.02;46.91;102943.59;4963790;28;20689;-46
2022/03/17 08:51:12;;;;;;;37.38;24.50;;;;;;;11.93;45.93;102942.53;4964205;28;20113;-46
2022/03/17 08:53:38;;;;;;;40.90;25.67;;;;;;;11.95;45.93;102940.84;4962077;28;20069;-45
2022/03/17 08:56:06;;;;;;;41.50;25.00;;;;;;;12.06;45.64;102937.63;4964517;28;20058;-47
2022/03/17 08:58:37;;;;;;;42.65;24.63;;;;;;;12.14;45.72;102936.03;4963571;28;20047;-45
2022/03/17 09:01:04;;;;;;;38.55;24.48;;;;;;;12.06;45.18;102937.63;4965719;28;20058;-58
2022/03/17 09:03:30;;;;;;;40.63;25.77;;;;;;;11.82;45.35;102927.56;4965764;28;20503;-46
2022/03/17 09:05:59;;;;;;;41.17;25.70;;;;;;;11.64;45.64;102934.09;4965238;28;20058;-53
2022/03/17 09:08:27;;;;;;;40.80;24.45;;;;;;;11.45;46.24;102931.06;4965268;28;20101;-48
2022/03/17 09:10:55;;;;;;;38.35;25.58;;;;;;;11.33;46.57;102929.91;4964016;28;20578;-51
2022/03/17 09:13:22;;;;;;;43.90;26.30;;;;;;;11.23;46.63;102927.94;4964614;28;20050;-50
2022/03/17 09:15:49;;;;;;;36.85;24.27;;;;;;;11.20;47.04;102920.06;4965203;28;20411;-49
2022/03/17 09:18:16;;;;;;;37.97;24.60;;;;;;;11.15;46.69;102916.50;4965789;28;20047;-51
2022/03/17 09:20:42;;;;;;;37.15;23.92;;;;;;;11.07;47.01;102925.81;4964660;28;20061;-51
2022/03/17 09:23:10;;;;;;;32.63;20.92;;;;;;;10.91;47.38;102928.84;4965203;28;20444;-49
2022/03/17 09:25:37;;;;;;;37.70;22.67;;;;;;;10.84;47.54;102919.16;4966083;28;20716;-50
2022/03/17 09:28:04;;;;;;;37.55;23.77;;;;;;;10.69;47.28;102928.31;4964936;28;20593;-53
2022/03/17 09:30:31;;;;;;;42.50;25.38;;;;;;;10.50;47.71;102920.88;4966173;28;20061;-50
2022/03/17 09:32:59;;;;;;;39.05;23.30;;;;;;;10.35;48.21;102917.84;4964005;28;20058;-48
2022/03/17 09:35:26;;;;;;;37.80;24.08;;;;;;;10.24;48.10;102924.47;4964973;28;20082;-45
2022/03/17 09:37:53;;;;;;;40.13;23.90;;;;;;;10.11;48.99;102918.91;4965060;28;20050;-47
2022/03/17 09:40:19;;;;;;;36.58;23.08;;;;;;;10.09;49.81;102925.75;4965568;28;20062;-56
2022/03/17 09:42:47;;;;;;;31.38;20.02;;;;;;;10.11;49.78;102924.09;4964497;28;20049;-55
2022/03/17 09:45:15;;;;;;;32.55;20.52;;;;;;;10.03;49.84;102929.91;4965597;28;20047;-53
2022/03/17 09:47:44;;;;;;;29.92;19.67;;;;;;;9.98;49.73;102934.94;4965720;28;20047;-47
2022/03/17 09:50:14;;;;;;;30.55;19.73;;;;;;;9.92;50.58;102934.78;4965146;28;20484;-49
2022/03/17 09:52:42;;;;;;;37.55;20.95;;;;;;;9.96;51.67;102939.22;4965007;28;20468;-52
2022/03/17 09:55:10;;;;;;;32.15;19.85;;;;;;;9.98;51.90;102927.19;4965398;28;20492;-48
2022/03/17 09:57:37;;;;;;;32.97;21.77;;;;;;;10.01;51.83;102926.38;4963810;28;20173;-46
2022/03/17 10:00:06;;;;;;;34.58;22.10;;;;;;;10.02;51.30;102934.19;4965563;28;20499;-57
2022/03/17 10:02:34;;;;;;;31.65;20.55;;;;;;;10.16;50.49;102936.28;4964211;28;20051;-58
2022/03/17 10:05:02;;;;;;;31.77;20.67;;;;;;;10.29;50.69;102928.06;4961345;28;20050;-54
2022/03/17 10:07:28;;;;;;;37.28;20.75;;;;;;;10.42;50.76;102932.78;4964241;28;20074;-54
2022/03/17 10:09:55;;;;;;;31.75;20.98;;;;;;;10.58;50.26;102921.97;4964029;28;20051;-50
2022/03/17 10:12:22;;;;;;;34.63;20.67;;;;;;;10.79;50.19;102933.72;4964733;28;20054;-57
2022/03/17 10:14:50;;;;;;;35.45;22.92;;;;;;;10.96;49.50;102929.88;4964441;28;20055;-58
2022/03/17 10:17:32;;;;;;;34.42;22.15;;;;;;;11.12;48.22;102924.19;4964939;28;20046;-51
2022/03/17 10:20:13;;;;;;;37.42;23.17;;;;;;;11.31;47.00;102918.59;4962450;28;20117;-49
2022/03/17 10:22:44;;;;;;;39.65;24.00;;;;;;;11.34;46.55;102921.25;4962230;28;20509;-46
2022/03/17 10:25:14;;;;;;;35.75;23.23;;;;;;;11.40;46.41;102920.53;4962419;28;20570;-46
2022/03/17 10:27:41;;;;;;;36.05;22.55;;;;;;;11.48;47.13;102913.81;4962587;28;20137;-48
2022/03/17 10:30:10;;;;;;;35.65;22.23;;;;;;;11.64;47.05;102907.22;4963692;28;20063;-45
2022/03/17 10:32:37;;;;;;;37.75;23.60;;;;;;;11.71;46.91;102914.31;4962181;28;20050;-49
2022/03/17 10:35:08;;;;;;;37.38;23.08;;;;;;;11.78;46.71;102910.16;4962284;28;20054;-48
2022/03/17 10:37:37;;;;;;;35.33;22.10;;;;;;;11.80;46.21;102911.94;4963073;28;20142;-52
2022/03/17 10:40:10;;;;;;;33.67;21.80;;;;;;;11.84;45.99;102916.34;4962212;28;20186;-55
2022/03/17 10:42:37;;;;;;;37.42;22.80;;;;;;;11.87;45.52;102908.63;4962513;28;20113;-50
2022/03/17 10:45:06;;;;;;;34.97;21.88;;;;;;;11.91;46.08;102902.63;4963148;28;21006;-47
2022/03/17 10:47:35;;;;;;;35.17;22.05;;;;;;;11.98;46.03;102899.34;4959751;28;20066;-58
2022/03/17 10:50:13;;;;;;;32.85;21.23;;;;;;;12.05;46.10;102899.47;4964377;28;20476;-57
2022/03/17 10:52:49;;;;;;;35.70;21.48;;;;;;;12.15;46.59;102893.59;4963437;28;20066;-55
2022/03/17 10:55:19;;;;;;;;;;;;;;;12.26;44.25;102899.88;4963079;28;20047;-48
2022/03/17 10:57:45;;;;;;;32.33;21.90;;;;;;;12.33;45.05;102880.94;4967230;28;20395;-52
2022/03/17 11:00:20;;;;;;;37.85;23.20;;;;;;;12.39;43.71;102886.25;4962428;28;20066;-49
2022/03/17 11:02:48;;;;;;;34.80;20.77;;;;;;;12.47;44.15;102884.66;4964025;28;20051;-49
2022/03/17 11:05:17;;;;;;;90.55;48.33;;;;;;;12.55;43.54;102875.28;4964472;28;20055;-47
2022/03/17 11:07:45;;;;;;;49.08;28.98;;;;;;;12.64;43.31;102871.97;4961613;28;20065;-47
2022/03/17 11:10:15;;;;;;;33.38;22.23;;;;;;;12.77;41.77;102865.25;4964174;28;20058;-51
2022/03/17 11:12:42;;;;;;;37.28;23.00;;;;;;;12.84;42.19;102867.09;4964488;28;20047;-46
2022/03/17 11:15:09;;;;;;;43.95;24.20;;;;;;;12.94;42.19;102861.16;4963628;28;20058;-49
2022/03/17 11:17:39;;;;;;;31.40;21.88;;;;;;;12.99;41.31;102859.50;4964581;28;20061;-47
2022/03/17 11:20:08;;;;;;;32.85;21.38;;;;;;;13.06;41.11;102856.19;4963813;28;20054;-59
2022/03/17 11:22:38;;;;;;;31.15;19.27;;;;;;;13.08;40.60;102859.69;4966020;28;20481;-58
2022/03/17 11:25:23;;;;;;;34.05;22.15;;;;;;;13.06;40.81;102858.78;4961347;28;20065;-48
2022/03/17 11:27:51;;;;;;;33.78;21.25;;;;;;;13.14;41.46;102862.38;4966005;28;20531;-49
2022/03/17 11:30:18;;;;;;;34.92;21.48;;;;;;;13.16;40.97;102852.84;4965398;28;20054;-50